Time;durP1;ratioP1;P1;durP2;ratioP2;P2;SDS_P1;SDS_P2;PMS_P1;PMS_P2;Temp;Humidity;BMP_temperature;BMP_pressure;BME280_temperature;BME280_humidity;BME280_pressure;Samples;Min_cycle;Max_cycle;Signal;HPM_P1;HPM_P2
2021/07/05 00:01:49;;;;;;;7.68;4.40;;;16.10;99.90;;;;;;5082787;28;20044;-66
2021/07/05 00:04:16;;;;;;;8.70;4.88;;;16.10;99.90;;;;;;5080645;28;20093;-67
2021/07/05 00:06:43;;;;;;;8.75;4.93;;;16.20;99.90;;;;;;5083237;28;20477;-67
2021/07/05 00:09:11;;;;;;;14.00;5.20;;;16.30;99.90;;;;;;5082359;28;20043;-67
2021/07/05 00:11:39;;;;;;;9.82;4.53;;;16.10;99.90;;;;;;5080436;28;20092;-66
2021/07/05 00:14:06;;;;;;;9.40;4.78;;;16.10;99.90;;;;;;5082186;28;20499;-67
2021/07/05 00:16:33;;;;;;;10.02;4.25;;;16.10;99.90;;;;;;5082130;28;20043;-67
2021/07/05 00:19:00;;;;;;;8.27;4.95;;;16.10;99.90;;;;;;5079922;28;20108;-67
2021/07/05 00:21:27;;;;;;;9.20;5.18;;;16.00;99.90;;;;;;5082009;28;20087;-66
2021/07/05 00:23:54;;;;;;;8.38;5.00;;;16.10;99.90;;;;;;5080005;28;20166;-67
2021/07/05 00:26:22;;;;;;;10.82;6.07;;;16.10;99.90;;;;;;5081259;28;20131;-66
2021/07/05 00:28:49;;;;;;;9.50;5.72;;;16.10;99.90;;;;;;5080913;28;20100;-67
2021/07/05 00:31:16;;;;;;;10.10;6.03;;;16.10;99.90;;;;;;5080367;28;20086;-67
2021/07/05 00:33:43;;;;;;;11.10;5.82;;;16.00;99.90;;;;;;5082688;28;20097;-66
2021/07/05 00:36:10;;;;;;;9.55;6.25;;;16.00;99.90;;;;;;5079738;28;20080;-66
2021/07/05 00:38:37;;;;;;;11.93;6.25;;;16.00;99.90;;;;;;5080006;28;20072;-66
2021/07/05 00:41:04;;;;;;;7.80;5.15;;;16.10;99.90;;;;;;5079863;28;20048;-66
2021/07/05 00:43:32;;;;;;;8.93;5.80;;;16.10;99.90;;;;;;5082246;28;20358;-67
2021/07/05 00:46:00;;;;;;;8.77;5.13;;;16.00;99.90;;;;;;5080275;28;20079;-67
2021/07/05 00:48:27;;;;;;;10.32;5.78;;;16.10;99.90;;;;;;5081771;28;20052;-67
2021/07/05 00:50:54;;;;;;;10.88;6.53;;;16.00;99.90;;;;;;5080348;28;20131;-66
2021/07/05 00:53:21;;;;;;;10.45;6.43;;;16.10;99.90;;;;;;5080638;28;20130;-67
2021/07/05 00:55:48;;;;;;;11.70;6.20;;;16.10;99.90;;;;;;5080004;28;20079;-66
2021/07/05 00:58:15;;;;;;;12.27;6.28;;;16.00;99.90;;;;;;5078744;28;20087;-67
2021/07/05 01:00:43;;;;;;;11.45;7.13;;;16.00;99.90;;;;;;5082432;28;20052;-67
2021/07/05 01:03:10;;;;;;;12.40;6.85;;;15.90;99.90;;;;;;5081507;28;20764;-67
2021/07/05 01:05:37;;;;;;;12.15;7.13;;;15.90;99.90;;;;;;5082197;28;20051;-66
2021/07/05 01:08:05;;;;;;;14.10;6.47;;;15.90;99.90;;;;;;5081144;28;20086;-67
2021/07/05 01:10:32;;;;;;;13.77;6.78;;;15.90;99.90;;;;;;5079699;28;20051;-66
2021/07/05 01:12:59;;;;;;;14.90;7.70;;;15.90;99.90;;;;;;5079842;28;20474;-67
2021/07/05 01:15:29;;;;;;;10.60;6.53;;;15.80;99.90;;;;;;5079537;28;20055;-66
2021/07/05 01:17:59;;;;;;;15.40;7.15;;;15.80;99.90;;;;;;5079179;28;20087;-66
2021/07/05 01:20:29;;;;;;;12.80;7.38;;;15.80;99.90;;;;;;5079929;28;20142;-67
2021/07/05 01:22:57;;;;;;;15.60;7.10;;;15.80;99.90;;;;;;5081175;28;20191;-66
2021/07/05 01:25:27;;;;;;;12.90;6.78;;;15.70;99.90;;;;;;5083220;28;20076;-67
2021/07/05 01:27:55;;;;;;;12.10;7.05;;;15.80;99.90;;;;;;5080331;28;20140;-67
2021/07/05 01:30:23;;;;;;;13.27;7.15;;;15.70;99.90;;;;;;5083051;28;20504;-67
2021/07/05 01:32:52;;;;;;;13.88;8.00;;;15.80;99.90;;;;;;5080534;28;20089;-67
2021/07/05 01:35:19;;;;;;;12.18;8.20;;;15.70;99.90;;;;;;5079080;28;20079;-66
2021/07/05 01:37:47;;;;;;;11.40;7.10;;;15.80;99.90;;;;;;5079432;28;20067;-67
2021/07/05 01:40:17;;;;;;;16.13;8.32;;;15.90;99.90;;;;;;5078459;28;20044;-67
2021/07/05 01:42:49;;;;;;;11.38;7.78;;;15.90;99.90;;;;;;5081715;28;20040;-67
2021/07/05 01:45:16;;;;;;;12.32;8.15;;;16.00;99.90;;;;;;5077149;28;20055;-67
2021/07/05 01:47:44;;;;;;;15.38;8.38;;;16.00;99.90;;;;;;5077667;28;20101;-67
2021/07/05 01:50:11;;;;;;;12.10;7.78;;;15.90;99.90;;;;;;5081181;28;20087;-66
2021/07/05 01:52:38;;;;;;;14.73;8.80;;;15.90;99.90;;;;;;5081138;28;20135;-67
2021/07/05 01:55:06;;;;;;;11.13;8.10;;;15.80;99.90;;;;;;5078222;28;20048;-67
2021/07/05 01:57:35;;;;;;;13.32;7.30;;;15.80;99.90;;;;;;5079575;28;20083;-67
2021/07/05 02:00:08;;;;;;;17.13;8.60;;;15.80;99.90;;;;;;5077992;28;20048;-67
2021/07/05 02:02:35;;;;;;;16.02;8.57;;;15.70;99.90;;;;;;5078595;28;20052;-67
2021/07/05 02:05:03;;;;;;;11.57;8.32;;;15.80;99.90;;;;;;5080109;28;20051;-67
2021/07/05 02:07:30;;;;;;;14.65;7.65;;;15.80;99.90;;;;;;5078706;28;20059;-67
2021/07/05 02:09:57;;;;;;;13.35;9.45;;;15.90;99.90;;;;;;5078697;28;20306;-67
2021/07/05 02:12:24;;;;;;;12.95;8.38;;;15.90;99.90;;;;;;5078285;28;20052;-66
2021/07/05 02:14:52;;;;;;;14.23;9.25;;;15.90;99.90;;;;;;5079141;28;20103;-67
2021/07/05 02:17:19;;;;;;;15.82;9.65;;;15.90;99.90;;;;;;5077981;28;20147;-66
2021/07/05 02:19:46;;;;;;;12.38;8.20;;;15.80;99.90;;;;;;5076374;28;20055;-67
2021/07/05 02:22:13;;;;;;;18.17;9.18;;;15.70;99.90;;;;;;5077860;28;20043;-67
2021/07/05 02:24:40;;;;;;;18.58;9.43;;;15.80;99.90;;;;;;5082088;28;20060;-67
2021/07/05 02:27:07;;;;;;;16.20;9.57;;;15.80;99.90;;;;;;5078426;28;20588;-67
2021/07/05 02:29:35;;;;;;;20.15;10.15;;;15.90;99.90;;;;;;5080305;28;20047;-67
2021/07/05 02:32:05;;;;;;;19.30;9.93;;;15.80;99.90;;;;;;5077751;28;20059;-66
2021/07/05 02:34:32;;;;;;;16.77;10.40;;;15.80;99.90;;;;;;5077571;28;20044;-67
2021/07/05 02:36:59;;;;;;;16.35;10.10;;;15.80;99.90;;;;;;5079373;28;20431;-67
2021/07/05 02:39:26;;;;;;;16.60;10.68;;;15.70;99.90;;;;;;5076108;28;20179;-67
2021/07/05 02:41:53;;;;;;;21.55;11.27;;;15.70;99.90;;;;;;5079674;28;20489;-66
2021/07/05 02:44:21;;;;;;;19.42;11.13;;;15.60;99.90;;;;;;5079611;28;20532;-67
2021/07/05 02:46:48;;;;;;;15.95;10.65;;;15.50;99.90;;;;;;5080066;28;20496;-67
2021/07/05 02:49:16;;;;;;;16.40;11.07;;;15.50;99.90;;;;;;5078050;28;20569;-67
2021/07/05 02:51:43;;;;;;;18.65;10.25;;;15.50;99.90;;;;;;5078657;28;20044;-67
2021/07/05 02:54:10;;;;;;;23.95;10.68;;;15.40;99.90;;;;;;5077799;28;20052;-67
2021/07/05 02:56:37;;;;;;;19.05;10.73;;;15.40;99.90;;;;;;5078945;28;20782;-67
2021/07/05 02:59:04;;;;;;;19.95;10.75;;;15.50;99.90;;;;;;5079772;27;20124;-67
2021/07/05 03:01:31;;;;;;;17.15;10.73;;;15.50;99.90;;;;;;5085346;28;20781;-67
2021/07/05 03:03:58;;;;;;;20.98;11.80;;;15.50;99.90;;;;;;5082680;28;20048;-67
2021/07/05 03:06:27;;;;;;;19.58;10.63;;;15.40;99.90;;;;;;5084110;28;20040;-67
2021/07/05 03:08:54;;;;;;;22.23;10.35;;;15.40;99.90;;;;;;5081575;28;20117;-66
2021/07/05 03:11:21;;;;;;;15.13;9.00;;;15.50;99.90;;;;;;5082951;28;20492;-66
2021/07/05 03:13:48;;;;;;;14.30;8.82;;;15.50;99.90;;;;;;5083862;28;20442;-67
2021/07/05 03:16:16;;;;;;;16.45;10.23;;;15.50;99.90;;;;;;5082238;28;20133;-67
2021/07/05 03:18:43;;;;;;;15.25;9.38;;;15.60;99.90;;;;;;5080423;28;20435;-67
2021/07/05 03:21:10;;;;;;;18.25;9.60;;;15.70;99.90;;;;;;5083610;28;20052;-67
2021/07/05 03:23:38;;;;;;;17.77;10.00;;;15.60;99.90;;;;;;5079373;28;20088;-66
2021/07/05 03:26:05;;;;;;;17.50;9.60;;;15.60;99.90;;;;;;5084497;28;20469;-67
2021/07/05 03:28:32;;;;;;;16.92;9.77;;;15.60;99.90;;;;;;5081103;28;20051;-66
2021/07/05 03:30:59;;;;;;;15.38;9.27;;;15.50;99.90;;;;;;5081368;28;20126;-66
2021/07/05 03:33:26;;;;;;;18.13;9.35;;;15.50;99.90;;;;;;5084002;28;20048;-67
2021/07/05 03:35:53;;;;;;;14.23;8.75;;;15.50;99.90;;;;;;5081733;28;20079;-66
2021/07/05 03:38:21;;;;;;;23.00;9.30;;;15.40;99.90;;;;;;5086249;28;20051;-67
2021/07/05 03:40:50;;;;;;;14.82;7.63;;;15.40;99.90;;;;;;5082019;28;20457;-67
2021/07/05 03:43:17;;;;;;;15.07;8.10;;;15.40;99.90;;;;;;5083122;28;20063;-66
2021/07/05 03:45:44;;;;;;;16.30;7.82;;;15.40;99.90;;;;;;5082498;28;20504;-67
2021/07/05 03:48:12;;;;;;;13.52;7.72;;;15.40;99.90;;;;;;5082665;28;20044;-66
2021/07/05 03:50:39;;;;;;;13.20;7.90;;;15.40;99.90;;;;;;5084201;28;20055;-66
2021/07/05 03:53:07;;;;;;;17.55;8.23;;;15.50;99.90;;;;;;5083735;28;20079;-66
2021/07/05 03:55:35;;;;;;;13.70;8.30;;;15.50;99.90;;;;;;5079594;28;20051;-67
2021/07/05 03:58:05;;;;;;;15.45;8.35;;;15.60;99.90;;;;;;5082093;28;20123;-67
2021/07/05 04:00:35;;;;;;;11.98;7.85;;;15.60;99.90;;;;;;5084275;28;20047;-66
2021/07/05 04:03:02;;;;;;;16.05;8.10;;;15.60;99.90;;;;;;5084153;28;20101;-67
2021/07/05 04:05:30;;;;;;;11.75;7.20;;;15.70;99.90;;;;;;5079278;28;20093;-67
2021/07/05 04:07:58;;;;;;;12.60;8.02;;;15.60;99.90;;;;;;5080689;28;20798;-67
2021/07/05 04:10:25;;;;;;;13.63;7.60;;;15.50;99.90;;;;;;5083222;28;20873;-67
2021/07/05 04:12:53;;;;;;;14.50;7.70;;;15.60;99.90;;;;;;5081378;28;20479;-67
2021/07/05 04:15:22;;;;;;;14.07;7.88;;;15.60;99.90;;;;;;5083864;28;20109;-67
2021/07/05 04:17:49;;;;;;;15.43;7.85;;;15.60;99.90;;;;;;5081263;28;20044;-67
2021/07/05 04:20:22;;;;;;;15.07;7.68;;;15.60;99.90;;;;;;5080239;28;20105;-67
2021/07/05 04:22:50;;;;;;;22.75;8.63;;;15.60;99.90;;;;;;5080275;28;20416;-66
2021/07/05 04:25:20;;;;;;;12.88;7.22;;;15.50;99.90;;;;;;5080703;28;20047;-67
2021/07/05 04:27:48;;;;;;;10.50;6.57;;;15.50;99.90;;;;;;5079736;28;20473;-67
2021/07/05 04:30:16;;;;;;;14.57;5.88;;;15.70;99.90;;;;;;5082853;28;20138;-67
2021/07/05 04:32:46;;;;;;;13.02;6.97;;;15.60;99.90;;;;;;5082368;28;20051;-66
2021/07/05 04:35:16;;;;;;;16.85;5.93;;;15.70;99.90;;;;;;5081779;28;20079;-66
2021/07/05 04:37:44;;;;;;;8.60;5.57;;;15.70;99.90;;;;;;5077280;28;20075;-67
2021/07/05 04:40:14;;;;;;;10.18;5.10;;;15.70;99.90;;;;;;5080723;28;20454;-67
2021/07/05 04:42:42;;;;;;;8.52;4.75;;;15.70;99.90;;;;;;5080826;28;20040;-67
2021/07/05 04:45:11;;;;;;;10.05;5.88;;;15.70;99.90;;;;;;5080186;28;20048;-66
2021/07/05 04:47:38;;;;;;;10.23;6.03;;;15.70;99.90;;;;;;5078921;28;20608;-66
2021/07/05 04:50:10;;;;;;;9.60;4.65;;;15.70;99.90;;;;;;5080785;28;20101;-67
2021/07/05 04:52:37;;;;;;;12.35;4.70;;;15.80;99.90;;;;;;5078636;28;20888;-67
2021/07/05 04:55:04;;;;;;;9.15;5.10;;;15.80;99.90;;;;;;5081557;28;20044;-66
2021/07/05 04:57:31;;;;;;;9.77;5.13;;;15.80;99.90;;;;;;5084077;28;20120;-66
2021/07/05 04:59:58;;;;;;;11.65;4.55;;;15.90;99.90;;;;;;5085462;28;20044;-67
2021/07/05 05:02:26;;;;;;;7.38;4.43;;;15.90;99.90;;;;;;5081055;28;20090;-67
2021/07/05 05:04:54;;;;;;;13.45;4.50;;;16.00;99.90;;;;;;5081648;28;20102;-66
2021/07/05 05:07:22;;;;;;;9.68;4.10;;;16.00;99.90;;;;;;5079421;28;20105;-66
2021/07/05 05:09:49;;;;;;;10.00;4.25;;;16.10;99.90;;;;;;5079910;28;20087;-67
2021/07/05 05:12:16;;;;;;;8.30;4.28;;;16.00;99.90;;;;;;5080552;28;20052;-66
2021/07/05 05:14:43;;;;;;;8.13;5.03;;;16.20;99.90;;;;;;5079316;28;20048;-66
2021/07/05 05:17:10;;;;;;;8.38;4.30;;;16.30;99.90;;;;;;5080663;28;20075;-67
2021/07/05 05:19:37;;;;;;;8.85;4.70;;;16.30;99.90;;;;;;5078871;28;20093;-67
2021/07/05 05:22:06;;;;;;;13.98;4.60;;;16.20;99.90;;;;;;5077998;28;20828;-66
2021/07/05 05:24:35;;;;;;;8.48;4.60;;;16.30;99.90;;;;;;5080514;28;20056;-66
2021/07/05 05:27:02;;;;;;;9.70;4.63;;;16.40;99.90;;;;;;5080058;28;21100;-67
2021/07/05 05:29:29;;;;;;;8.43;3.70;;;16.50;99.90;;;;;;5079927;28;20500;-67
2021/07/05 05:31:56;;;;;;;11.77;3.90;;;16.70;99.90;;;;;;5077849;28;20082;-66
2021/07/05 05:34:23;;;;;;;6.43;3.78;;;16.80;99.90;;;;;;5080048;28;20492;-66
2021/07/05 05:36:50;;;;;;;9.38;3.70;;;16.80;99.90;;;;;;5080569;28;20134;-66
2021/07/05 05:39:17;;;;;;;8.35;4.03;;;17.00;99.90;;;;;;5077412;28;20075;-66
2021/07/05 05:41:46;;;;;;;8.88;3.88;;;16.90;99.90;;;;;;5078187;28;20056;-66
2021/07/05 05:44:13;;;;;;;8.65;4.55;;;16.90;99.90;;;;;;5081529;28;20156;-66
2021/07/05 05:46:40;;;;;;;11.15;4.03;;;16.90;99.90;;;;;;5081228;28;20101;-66
2021/07/05 05:49:08;;;;;;;7.45;3.30;;;17.00;99.90;;;;;;5079977;28;20086;-65
2021/07/05 05:51:36;;;;;;;6.93;3.33;;;17.00;99.90;;;;;;5079931;28;20079;-67
2021/07/05 05:54:04;;;;;;;7.50;3.90;;;17.10;99.90;;;;;;5078622;28;20052;-66
2021/07/05 05:56:32;;;;;;;8.23;3.13;;;17.20;99.90;;;;;;5078952;28;20130;-66
2021/07/05 05:59:03;;;;;;;12.18;3.35;;;17.30;99.90;;;;;;5078424;28;20040;-66
2021/07/05 06:01:30;;;;;;;6.70;3.00;;;17.30;99.90;;;;;;5078430;28;20052;-66
2021/07/05 06:03:57;;;;;;;7.28;3.38;;;17.40;99.90;;;;;;5078560;28;20132;-66
2021/07/05 06:06:25;;;;;;;8.38;3.35;;;17.50;99.90;;;;;;5079717;28;20086;-66
2021/07/05 06:08:52;;;;;;;9.40;3.17;;;17.50;99.90;;;;;;5077158;28;20137;-66
2021/07/05 06:11:19;;;;;;;9.98;3.38;;;17.50;99.90;;;;;;5078020;28;20051;-66
2021/07/05 06:13:47;;;;;;;6.20;3.25;;;17.70;99.90;;;;;;5078697;28;20047;-66
2021/07/05 06:16:15;;;;;;;8.52;3.38;;;17.80;99.90;;;;;;5079650;28;20062;-66
2021/07/05 06:18:42;;;;;;;8.40;3.42;;;17.80;99.90;;;;;;5078257;28;20109;-66
2021/07/05 06:21:10;;;;;;;6.93;2.97;;;17.80;99.90;;;;;;5076456;28;20043;-66
2021/07/05 06:23:37;;;;;;;7.78;3.67;;;17.70;99.90;;;;;;5078916;28;21046;-66
2021/07/05 06:26:05;;;;;;;12.75;3.60;;;17.70;99.90;;;;;;5078724;28;20476;-66
2021/07/05 06:28:34;;;;;;;10.23;3.40;;;17.80;99.90;;;;;;5080296;28;20516;-66
2021/07/05 06:31:03;;;;;;;8.10;3.17;;;17.80;99.90;;;;;;5079644;28;20155;-66
2021/07/05 06:33:31;;;;;;;7.45;3.10;;;17.80;99.90;;;;;;5078558;28;20130;-66
2021/07/05 06:35:58;;;;;;;7.53;3.15;;;18.10;99.90;;;;;;5082513;28;20044;-66
2021/07/05 06:38:26;;;;;;;5.88;2.97;;;18.10;99.90;;;;;;5083391;28;20139;-66
2021/07/05 06:40:54;;;;;;;6.55;2.88;;;18.00;99.90;;;;;;5083482;28;20097;-66
2021/07/05 06:43:21;;;;;;;10.00;2.85;;;18.20;99.90;;;;;;5083013;28;20044;-66
2021/07/05 06:45:48;;;;;;;7.53;3.20;;;18.20;99.90;;;;;;5083367;28;20081;-66
2021/07/05 06:48:15;;;;;;;7.13;3.03;;;18.20;99.90;;;;;;5081413;28;21140;-65
2021/07/05 06:50:43;;;;;;;9.65;3.20;;;18.30;99.90;;;;;;5081887;28;20051;-66
2021/07/05 06:53:11;;;;;;;4.43;2.72;;;18.40;99.90;;;;;;5082121;28;20072;-66
2021/07/05 06:55:38;;;;;;;6.97;3.72;;;18.40;99.90;;;;;;5082125;28;20484;-66
2021/07/05 06:58:05;;;;;;;6.32;2.60;;;18.50;99.90;;;;;;5083580;28;20047;-66
2021/07/05 07:00:32;;;;;;;4.22;2.30;;;18.40;99.90;;;;;;5082200;28;20177;-66
2021/07/05 07:03:02;;;;;;;6.25;3.03;;;18.50;99.90;;;;;;5084979;28;20048;-66
2021/07/05 07:05:33;;;;;;;7.90;3.10;;;18.30;99.90;;;;;;5083208;28;20064;-66
2021/07/05 07:08:02;;;;;;;7.95;2.90;;;18.30;99.90;;;;;;5082472;28;20056;-66
2021/07/05 07:10:29;;;;;;;8.32;2.75;;;18.50;99.90;;;;;;5080468;28;20048;-66
2021/07/05 07:12:56;;;;;;;6.78;2.78;;;18.70;99.90;;;;;;5081190;28;20080;-66
2021/07/05 07:15:28;;;;;;;5.07;2.50;;;18.80;99.90;;;;;;5083390;28;20085;-66
2021/07/05 07:17:59;;;;;;;6.68;2.30;;;19.00;99.90;;;;;;5081391;28;20048;-66
2021/07/05 07:20:26;;;;;;;8.05;2.47;;;19.00;99.90;;;;;;5084543;28;20055;-66
2021/07/05 07:22:53;;;;;;;8.13;2.65;;;19.00;99.90;;;;;;5084452;28;20092;-66
2021/07/05 07:25:21;;;;;;;8.85;2.70;;;19.20;99.90;;;;;;5084127;28;20047;-66
2021/07/05 07:27:48;;;;;;;5.18;2.20;;;19.20;99.90;;;;;;5081295;28;20105;-66
2021/07/05 07:30:17;;;;;;;4.70;2.67;;;19.10;99.90;;;;;;5082899;28;20082;-66
2021/07/05 07:32:45;;;;;;;9.05;3.22;;;19.10;99.90;;;;;;5083403;28;20043;-66
2021/07/05 07:35:14;;;;;;;8.48;2.45;;;19.30;99.90;;;;;;5081810;28;20040;-66
2021/07/05 07:37:43;;;;;;;4.40;2.15;;;19.40;99.90;;;;;;5081000;28;20059;-66
2021/07/05 07:40:15;;;;;;;5.63;1.98;;;19.60;99.90;;;;;;5080322;28;20538;-66
2021/07/05 07:42:44;;;;;;;7.97;2.67;;;19.50;99.90;;;;;;5083518;28;20202;-66
2021/07/05 07:45:12;;;;;;;5.82;2.13;;;19.50;99.90;;;;;;5081574;28;20080;-66
2021/07/05 07:47:40;;;;;;;5.03;2.40;;;19.50;99.90;;;;;;5081899;28;20083;-66
2021/07/05 07:50:09;;;;;;;8.45;2.55;;;19.30;99.90;;;;;;5081259;28;20052;-66
2021/07/05 07:52:37;;;;;;;7.70;2.47;;;19.30;99.90;;;;;;5080722;28;20397;-66
2021/07/05 07:55:05;;;;;;;7.95;2.40;;;19.50;99.90;;;;;;5081828;28;20052;-66
2021/07/05 07:57:32;;;;;;;9.55;2.90;;;19.50;99.90;;;;;;5080886;28;20123;-66
2021/07/05 08:00:00;;;;;;;5.05;2.25;;;19.50;99.90;;;;;;5082792;27;20048;-66
2021/07/05 08:02:27;;;;;;;5.15;2.55;;;19.60;99.90;;;;;;5082663;28;20077;-66
2021/07/05 08:04:54;;;;;;;5.97;2.50;;;19.50;99.90;;;;;;5081618;28;20087;-66
2021/07/05 08:07:21;;;;;;;8.75;2.40;;;19.60;99.90;;;;;;5081076;28;20131;-66
2021/07/05 08:09:48;;;;;;;7.90;2.30;;;19.70;99.90;;;;;;5080735;28;20083;-66
2021/07/05 08:12:15;;;;;;;4.50;2.33;;;19.60;99.90;;;;;;5081990;28;20044;-66
2021/07/05 08:14:42;;;;;;;5.72;2.15;;;19.40;99.90;;;;;;5082129;28;20101;-65
2021/07/05 08:17:10;;;;;;;4.28;2.42;;;19.20;99.90;;;;;;5080484;28;20159;-66
2021/07/05 08:19:37;;;;;;;4.78;2.35;;;19.10;99.90;;;;;;5081030;28;20215;-67
2021/07/05 08:22:04;;;;;;;5.95;2.45;;;19.10;99.90;;;;;;5079965;28;20094;-66
2021/07/05 08:24:31;;;;;;;4.20;2.03;;;19.10;99.90;;;;;;5081567;28;20104;-66
2021/07/05 08:26:58;;;;;;;6.30;2.30;;;19.20;99.90;;;;;;5082253;28;20052;-66
2021/07/05 08:29:26;;;;;;;11.75;2.83;;;19.10;99.90;;;;;;5079268;28;20051;-66
2021/07/05 08:31:53;;;;;;;6.05;2.40;;;19.20;99.90;;;;;;5080755;28;20096;-66
2021/07/05 08:34:21;;;;;;;5.10;1.90;;;19.30;99.90;;;;;;5081400;28;20109;-66
2021/07/05 08:36:48;;;;;;;5.60;2.70;;;19.40;99.90;;;;;;5082167;28;20056;-65
2021/07/05 08:39:15;;;;;;;5.13;2.08;;;19.40;99.90;;;;;;5077816;28;20156;-66
2021/07/05 08:41:42;;;;;;;5.53;2.10;;;19.40;99.90;;;;;;5080737;28;20047;-66
2021/07/05 08:44:09;;;;;;;7.25;2.70;;;19.50;99.90;;;;;;5083334;28;20048;-66
2021/07/05 08:46:37;;;;;;;4.05;2.28;;;19.60;99.90;;;;;;5081948;28;20055;-66
2021/07/05 08:49:05;;;;;;;4.80;2.20;;;19.70;99.90;;;;;;5079938;28;20048;-65
2021/07/05 08:51:33;;;;;;;7.07;2.42;;;19.80;99.90;;;;;;5080417;28;20053;-66
2021/07/05 08:54:00;;;;;;;5.00;2.08;;;19.80;99.90;;;;;;5079193;28;20515;-65
2021/07/05 08:56:27;;;;;;;4.88;2.10;;;19.80;99.90;;;;;;5078705;28;20048;-66
2021/07/05 08:58:55;;;;;;;8.02;3.10;;;19.80;99.90;;;;;;5077235;28;20121;-66
2021/07/05 09:01:22;;;;;;;14.15;2.30;;;19.90;99.90;;;;;;5081676;28;20105;-66
2021/07/05 09:03:50;;;;;;;4.95;2.00;;;19.70;99.90;;;;;;5081950;28;20044;-66
2021/07/05 09:06:20;;;;;;;3.33;1.83;;;19.70;99.90;;;;;;5081708;28;20048;-65
2021/07/05 09:09:09;;;;;;;6.90;2.20;;;19.80;99.90;;;;;;5079653;28;20071;-66
2021/07/05 09:11:41;;;;;;;4.15;2.38;;;19.80;99.90;;;;;;5080055;28;20052;-65
2021/07/05 09:14:13;;;;;;;5.32;2.10;;;20.00;99.90;;;;;;5080484;28;20063;-66
2021/07/05 09:16:40;;;;;;;5.95;1.88;;;20.20;99.90;;;;;;5079713;28;20199;-65
2021/07/05 09:19:15;;;;;;;5.30;2.03;;;20.20;99.90;;;;;;5080923;28;20052;-65
2021/07/05 09:21:46;;;;;;;4.57;1.85;;;20.50;99.90;;;;;;5081339;28;20101;-66
2021/07/05 09:24:15;;;;;;;3.63;1.90;;;20.60;99.90;;;;;;5077662;28;20044;-66
2021/07/05 09:26:44;;;;;;;5.18;2.08;;;20.80;99.90;;;;;;5079020;28;20086;-66
2021/07/05 09:29:21;;;;;;;8.40;2.38;;;20.70;99.90;;;;;;5081430;28;20052;-66
2021/07/05 09:31:52;;;;;;;5.03;2.17;;;20.90;99.90;;;;;;5083064;28;20077;-65
2021/07/05 09:34:21;;;;;;;5.20;1.88;;;21.00;99.90;;;;;;5081210;28;20132;-65
2021/07/05 09:36:51;;;;;;;5.22;1.90;;;21.10;99.90;;;;;;5082534;28;20131;-65
2021/07/05 09:39:22;;;;;;;23.58;2.20;;;21.10;99.90;;;;;;5079540;28;20056;-66
2021/07/05 09:41:52;;;;;;;4.43;1.80;;;21.20;99.90;;;;;;5081417;28;20096;-65
2021/07/05 09:44:21;;;;;;;3.92;1.80;;;21.20;99.90;;;;;;5078936;28;20048;-66
2021/07/05 09:46:50;;;;;;;8.10;2.10;;;21.10;99.90;;;;;;5078115;28;20097;-65
2021/07/05 09:49:22;;;;;;;6.45;1.60;;;21.00;99.90;;;;;;5079866;28;20090;-65
2021/07/05 09:52:10;;;;;;;4.97;1.90;;;20.80;99.90;;;;;;5078829;28;20059;-66
2021/07/05 09:54:41;;;;;;;6.88;2.28;;;20.80;99.90;;;;;;5083200;28;20047;-66
2021/07/05 09:59:51;;;;;;;5.78;2.13;;;20.80;99.90;;;;;;5076164;28;20051;-66
2021/07/05 10:02:18;;;;;;;6.07;2.00;;;20.70;99.90;;;;;;5077966;28;20047;-65
2021/07/05 10:04:46;;;;;;;4.78;1.83;;;20.70;99.90;;;;;;5079579;28;20052;-66
2021/07/05 10:07:13;;;;;;;3.83;1.90;;;20.90;99.90;;;;;;5082448;28;20048;-66
2021/07/05 10:09:43;;;;;;;5.18;1.88;;;20.90;99.90;;;;;;5077651;28;20075;-65
2021/07/05 10:12:18;;;;;;;5.90;1.88;;;20.90;99.90;;;;;;5079335;28;20056;-65
2021/07/05 10:14:54;;;;;;;5.13;1.90;;;20.90;99.90;;;;;;5080913;28;20087;-66
2021/07/05 10:17:22;;;;;;;4.67;2.13;;;21.10;99.90;;;;;;5078912;28;20070;-66
2021/07/05 10:19:49;;;;;;;4.03;1.77;;;21.20;99.90;;;;;;5078001;28;20051;-66
2021/07/05 10:22:16;;;;;;;6.03;1.80;;;21.10;99.90;;;;;;5079327;28;20043;-65
2021/07/05 10:24:46;;;;;;;3.67;1.88;;;21.00;99.90;;;;;;5078833;28;20452;-66
2021/07/05 10:27:14;;;;;;;3.72;1.95;;;20.70;99.90;;;;;;5079895;28;20105;-67
2021/07/05 10:29:43;;;;;;;6.70;2.17;;;20.70;99.90;;;;;;5077661;28;20094;-66
2021/07/05 10:32:11;;;;;;;3.58;1.90;;;20.70;99.90;;;;;;5079936;28;20048;-66
2021/07/05 10:34:39;;;;;;;4.47;1.90;;;20.70;99.90;;;;;;5080771;28;20097;-66
2021/07/05 10:37:10;;;;;;;6.25;1.80;;;20.60;99.90;;;;;;5080177;28;20091;-65
2021/07/05 10:39:39;;;;;;;4.45;2.00;;;20.70;99.90;;;;;;5078130;28;20123;-66
2021/07/05 10:42:28;;;;;;;4.60;1.70;;;20.50;99.90;;;;;;5079140;28;20112;-65
2021/07/05 10:44:55;;;;;;;3.97;1.67;;;20.50;99.90;;;;;;5077204;28;20113;-66
2021/07/05 10:47:45;;;;;;;3.65;1.73;;;20.70;99.90;;;;;;5079220;28;20102;-66
2021/07/05 10:50:50;;;;;;;4.10;1.40;;;20.70;99.90;;;;;;5079965;28;20083;-65
2021/07/05 10:53:19;;;;;;;3.58;1.83;;;20.70;99.90;;;;;;5074091;28;20098;-65
2021/07/05 10:55:48;;;;;;;4.22;1.65;;;20.80;99.90;;;;;;5078224;28;20052;-65
2021/07/05 10:58:28;;;;;;;3.58;1.38;;;20.80;99.90;;;;;;5078190;28;20048;-65
2021/07/05 11:00:57;;;;;;;2.35;1.40;;;20.80;99.90;;;;;;5080938;28;20131;-66
2021/07/05 11:03:47;;;;;;;4.28;1.30;;;20.80;99.90;;;;;;5081151;28;20048;-65
2021/07/05 11:06:44;;;;;;;3.75;1.20;;;20.90;99.90;;;;;;5077033;28;20150;-65
2021/07/05 11:09:16;;;;;;;;;;;20.90;99.90;;;;;;5072151;28;20117;-65
2021/07/05 11:11:52;;;;;;;3.38;1.35;;;21.30;99.90;;;;;;5077284;28;19924;-66
2021/07/05 11:14:24;;;;;;;8.10;1.25;;;21.80;99.90;;;;;;5078432;28;20130;-66
2021/07/05 11:17:00;;;;;;;2.33;0.88;;;22.00;99.90;;;;;;5078885;28;20136;-65
2021/07/05 11:19:45;;;;;;;4.75;0.90;;;21.80;99.90;;;;;;5075929;28;20064;-66
2021/07/05 11:22:25;;;;;;;2.78;1.15;;;21.90;99.90;;;;;;5080705;28;20458;-65
2021/07/05 11:24:57;;;;;;;2.78;1.10;;;21.90;99.90;;;;;;5084505;28;20052;-66
2021/07/05 11:27:46;;;;;;;3.88;1.10;;;21.90;99.90;;;;;;5083663;28;20434;-66
2021/07/05 11:30:37;;;;;;;2.67;0.98;;;22.10;99.90;;;;;;5082833;28;20044;-66
2021/07/05 11:33:23;;;;;;;3.42;0.95;;;23.10;99.90;;;;;;5082160;28;20079;-66
2021/07/05 11:35:58;;;;;;;1.38;0.88;;;23.40;99.90;;;;;;5081954;28;20048;-66
2021/07/05 11:38:31;;;;;;;2.78;1.10;;;23.40;99.90;;;;;;5082016;28;20508;-66
2021/07/05 11:41:01;;;;;;;1.33;0.70;;;23.40;99.90;;;;;;5082476;28;20174;-66
2021/07/05 11:43:55;;;;;;;2.90;1.05;;;23.70;99.90;;;;;;5080327;28;20048;-66
2021/07/05 11:46:51;;;;;;;2.45;0.93;;;23.60;99.90;;;;;;5068076;28;20092;-65
2021/07/05 11:49:27;;;;;;;1.75;0.80;;;23.40;99.90;;;;;;5081478;28;20052;-66
2021/07/05 11:51:57;;;;;;;3.17;1.20;;;23.70;99.90;;;;;;5081218;28;20131;-66
2021/07/05 11:54:27;;;;;;;1.50;0.90;;;24.00;99.90;;;;;;5083441;28;20151;-66
2021/07/05 11:56:56;;;;;;;2.22;1.00;;;24.40;99.90;;;;;;5083358;28;20080;-66
2021/07/05 11:59:24;;;;;;;2.00;0.70;;;24.40;99.90;;;;;;5079517;28;20879;-66
2021/07/05 12:02:02;;;;;;;1.15;0.52;;;24.50;99.90;;;;;;5080328;28;20089;-66
2021/07/05 12:04:30;;;;;;;2.15;0.70;;;24.60;99.90;;;;;;5082829;28;20112;-66
2021/07/05 12:06:57;;;;;;;2.20;1.10;;;24.50;99.90;;;;;;5084921;28;20508;-66
2021/07/05 12:09:29;;;;;;;2.80;0.85;;;24.90;99.90;;;;;;5080981;28;20055;-66
2021/07/05 12:11:58;;;;;;;2.85;0.85;;;25.00;99.90;;;;;;5079701;28;20047;-66
2021/07/05 12:14:27;;;;;;;2.35;0.88;;;24.80;99.90;;;;;;5082996;28;20052;-66
2021/07/05 12:16:56;;;;;;;4.40;1.00;;;24.60;99.90;;;;;;5080531;28;20051;-65
2021/07/05 12:19:27;;;;;;;3.15;0.95;;;24.90;99.90;;;;;;5080332;28;20093;-66
2021/07/05 12:21:56;;;;;;;1.95;0.80;;;24.60;99.90;;;;;;5081702;28;20162;-66
2021/07/05 12:24:27;;;;;;;2.38;0.82;;;24.30;99.90;;;;;;5082145;28;20475;-66
2021/07/05 12:26:56;;;;;;;2.17;0.88;;;24.40;99.90;;;;;;5083176;28;20100;-65
2021/07/05 12:29:27;;;;;;;1.85;0.82;;;24.30;99.90;;;;;;5080743;28;20134;-63
2021/07/05 12:31:58;;;;;;;1.95;0.93;;;24.40;99.90;;;;;;5079000;28;20105;-67
2021/07/05 12:34:42;;;;;;;2.65;0.85;;;24.20;99.90;;;;;;5074246;28;20060;-68
2021/07/05 12:37:13;;;;;;;1.90;0.90;;;24.00;99.90;;;;;;5082596;28;20105;-68
2021/07/05 12:39:49;;;;;;;2.38;0.90;;;23.80;99.90;;;;;;5082386;28;20054;-68
2021/07/05 12:42:38;;;;;;;2.55;0.80;;;23.50;99.90;;;;;;5080784;28;20055;-68
2021/07/05 12:45:08;;;;;;;3.60;1.00;;;23.40;99.90;;;;;;5083804;28;20424;-68
2021/07/05 12:47:49;;;;;;;2.25;1.00;;;23.00;99.90;;;;;;5082818;28;20164;-68
2021/07/05 12:50:20;;;;;;;1.77;0.93;;;22.90;99.90;;;;;;5085709;28;20104;-68
2021/07/05 12:53:19;;;;;;;2.13;0.90;;;23.00;99.90;;;;;;5083551;28;20397;-68
2021/07/05 12:56:04;;;;;;;2.15;1.05;;;23.00;99.90;;;;;;5084771;28;20051;-67
2021/07/05 12:58:43;;;;;;;1.45;0.85;;;23.00;99.90;;;;;;5078637;28;20051;-68